createdAt,value
2022-09-18T00:00:44.745Z,98867.78
2022-09-18T00:03:47.769Z,98884.97
2022-09-18T00:06:50.429Z,98869.69
2022-09-18T00:09:53.764Z,98881.69
2022-09-18T00:12:56.495Z,98875.66
2022-09-18T00:15:59.497Z,98881.41
2022-09-18T00:19:02.637Z,98880.84
2022-09-18T00:22:05.501Z,98873.44
2022-09-18T00:25:08.703Z,98882.72
2022-09-18T00:28:11.592Z,98891.41
2022-09-18T00:31:18.839Z,98896.03
2022-09-18T00:34:22.476Z,98898.47
2022-09-18T00:37:25.013Z,98886.72
2022-09-18T00:40:28.016Z,98904.97
2022-09-18T00:43:33.466Z,98910.13
2022-09-18T00:46:37.616Z,98908.22
2022-09-18T00:49:49.638Z,98907.12
2022-09-18T00:52:58.027Z,98900.56
2022-09-18T00:56:02.431Z,98904.63
2022-09-18T00:59:05.686Z,98892.09
2022-09-18T01:02:09.050Z,98907.09
2022-09-18T01:05:14.682Z,98907.34
2022-09-18T01:08:31.213Z,98914.62
2022-09-18T01:12:11.045Z,98911.09
2022-09-18T01:15:34.846Z,98913.28
2022-09-18T01:19:05.547Z,98918.13
2022-09-18T01:22:35.601Z,98915.62
2022-09-18T01:26:00.091Z,98910.69
2022-09-18T01:29:26.161Z,98918.56
2022-09-18T01:32:45.332Z,98926.44
2022-09-18T01:35:53.045Z,98935.72
2022-09-18T01:39:14.061Z,98938.41
2022-09-18T01:42:21.177Z,98941.56
2022-09-18T01:45:34.814Z,98932.03
2022-09-18T01:48:51.453Z,98943.22
2022-09-18T01:52:01.335Z,98953.75
2022-09-18T01:55:09.739Z,98949.03
2022-09-18T01:58:19.000Z,98940.78
2022-09-18T02:01:28.999Z,98949.41
2022-09-18T02:04:37.526Z,98965.69
2022-09-18T02:07:47.388Z,98965.09
2022-09-18T02:10:59.600Z,98980.28
2022-09-18T02:14:21.168Z,98973.41
2022-09-18T02:18:08.449Z,98972.47
2022-09-18T02:21:16.751Z,98986.34
2022-09-18T02:24:24.553Z,98991.28
2022-09-18T02:27:30.056Z,98990.62
2022-09-18T02:30:34.115Z,98999.28
2022-09-18T02:33:38.576Z,98990.50
2022-09-18T02:37:00.998Z,98997.28
2022-09-18T02:40:53.909Z,98984.31
2022-09-18T02:44:23.036Z,98996.00
2022-09-18T02:48:03.732Z,98994.81
2022-09-18T02:51:22.991Z,98998.84
2022-09-18T02:54:30.257Z,98988.59
2022-09-18T02:57:39.775Z,99003.56
2022-09-18T03:00:44.438Z,99010.56
2022-09-18T03:03:48.100Z,99015.56
2022-09-18T03:06:53.636Z,99017.63
2022-09-18T03:09:56.764Z,99018.28
2022-09-18T03:12:59.426Z,99013.78
2022-09-18T03:16:02.680Z,99018.06
2022-09-18T03:19:05.417Z,99019.50
2022-09-18T03:22:08.498Z,99021.34
2022-09-18T03:25:13.187Z,99021.00
2022-09-18T03:28:17.038Z,99030.63
2022-09-18T03:31:19.906Z,99029.66
2022-09-18T03:34:22.926Z,99028.81
2022-09-18T03:37:25.728Z,99032.69
2022-09-18T03:40:29.439Z,99032.03
2022-09-18T03:43:32.765Z,99034.06
2022-09-18T03:46:36.401Z,99043.81
2022-09-18T03:49:39.066Z,99042.69
2022-09-18T03:52:42.143Z,99046.38
2022-09-18T03:55:46.910Z,99033.34
2022-09-18T03:58:54.971Z,99043.63
2022-09-18T04:01:58.351Z,99045.91
2022-09-18T04:05:06.460Z,99051.81
2022-09-18T04:08:13.222Z,99053.25
2022-09-18T04:11:16.829Z,99062.44
2022-09-18T04:14:19.488Z,99060.59
2022-09-18T04:17:22.443Z,99069.75
2022-09-18T04:20:25.224Z,99062.59
2022-09-18T04:23:28.178Z,99065.88
2022-09-18T04:26:34.271Z,99068.59
2022-09-18T04:29:37.379Z,99055.31
2022-09-18T04:32:43.379Z,99069.53
2022-09-18T04:35:46.283Z,99066.47
2022-09-18T04:38:48.934Z,99082.06
2022-09-18T04:41:52.035Z,99087.59
2022-09-18T04:44:54.854Z,99082.97
2022-09-18T04:47:57.786Z,99089.44
2022-09-18T04:51:00.814Z,99098.25
2022-09-18T04:54:03.970Z,99100.78
2022-09-18T04:57:10.405Z,99101.00
2022-09-18T05:00:14.099Z,99102.19
2022-09-18T05:03:19.344Z,99100.75
2022-09-18T05:06:24.329Z,99104.97
2022-09-18T05:09:27.020Z,99104.06
2022-09-18T05:12:30.749Z,99111.84
2022-09-18T05:15:33.554Z,99096.81
2022-09-18T05:18:38.211Z,99112.19
2022-09-18T05:21:41.103Z,99112.00
2022-09-18T05:24:47.507Z,99118.91
2022-09-18T05:27:57.481Z,99115.16
2022-09-18T05:31:01.790Z,99118.22
2022-09-18T05:34:06.668Z,99120.53
2022-09-18T05:37:10.638Z,99120.56
2022-09-18T05:40:15.761Z,99132.13
2022-09-18T05:43:19.253Z,99106.47
2022-09-18T05:46:22.843Z,99123.94
2022-09-18T05:49:25.952Z,99115.16
2022-09-18T05:52:30.623Z,99108.97
2022-09-18T05:55:34.230Z,99119.31
2022-09-18T05:58:37.757Z,99119.19
2022-09-18T06:01:44.854Z,99119.25
2022-09-18T06:04:51.543Z,99123.91
2022-09-18T06:07:59.539Z,99114.56
2022-09-18T06:11:03.578Z,99121.56
2022-09-18T06:14:06.630Z,99118.31
2022-09-18T06:17:09.911Z,99127.47
2022-09-18T06:20:14.161Z,99119.78
2022-09-18T06:23:17.044Z,99118.69
2022-09-18T06:26:21.263Z,99123.91
2022-09-18T06:29:24.217Z,99121.44
2022-09-18T06:32:28.350Z,99119.81
2022-09-18T06:35:33.923Z,99132.00
2022-09-18T06:38:37.330Z,99125.56
2022-09-18T06:41:40.325Z,99125.41
2022-09-18T06:44:52.923Z,99121.31
2022-09-18T06:48:01.019Z,99126.84
2022-09-18T06:51:04.011Z,99128.91
2022-09-18T06:54:07.637Z,99131.97
2022-09-18T06:57:10.433Z,99135.50
2022-09-18T07:00:13.701Z,99135.88
2022-09-18T07:03:16.530Z,99145.53
2022-09-18T07:06:22.952Z,99128.78
2022-09-18T07:09:26.176Z,99146.22
2022-09-18T07:12:30.367Z,99154.84
2022-09-18T07:15:34.210Z,99153.88
2022-09-18T07:18:40.921Z,99149.41
2022-09-18T07:21:45.768Z,99143.19
2022-09-18T07:24:49.802Z,99160.75
2022-09-18T07:27:52.736Z,99163.16
2022-09-18T07:30:56.486Z,99153.88
2022-09-18T07:33:59.429Z,99162.44
2022-09-18T07:37:02.446Z,99155.37
2022-09-18T07:40:09.724Z,99159.66
2022-09-18T07:43:16.092Z,99172.56
2022-09-18T07:46:19.559Z,99154.13
2022-09-18T07:49:23.007Z,99156.38
2022-09-18T07:52:27.615Z,99169.38
2022-09-18T07:55:35.133Z,99173.72
2022-09-18T07:58:39.878Z,99147.13
2022-09-18T08:01:45.611Z,99151.38
2022-09-18T08:04:49.044Z,99153.06
2022-09-18T08:07:51.767Z,99150.81
2022-09-18T08:10:57.089Z,99161.34
2022-09-18T08:14:00.376Z,99152.81
2022-09-18T08:17:04.472Z,99142.91
2022-09-18T08:20:09.616Z,99135.94
2022-09-18T08:23:14.387Z,99143.28
2022-09-18T08:26:22.025Z,99144.41
2022-09-18T08:29:25.677Z,99151.56
2022-09-18T08:32:28.778Z,99152.50
2022-09-18T08:35:32.225Z,99148.16
2022-09-18T08:38:35.913Z,99145.03
2022-09-18T08:42:11.581Z,99154.00
2022-09-18T08:45:17.581Z,99151.84
2022-09-18T08:48:27.538Z,99161.22
2022-09-18T08:51:34.680Z,99156.00
2022-09-18T08:54:44.863Z,99152.34
2022-09-18T08:57:53.078Z,99140.37
2022-09-18T09:01:08.010Z,99139.22
2022-09-18T09:04:19.472Z,99144.31
2022-09-18T09:07:32.484Z,99141.47
2022-09-18T09:10:56.121Z,99135.19
2022-09-18T09:14:45.852Z,99143.06
2022-09-18T09:17:59.455Z,99154.97
2022-09-18T09:21:20.654Z,99142.84
2022-09-18T09:24:41.793Z,99157.25
2022-09-18T09:27:51.351Z,99148.19
2022-09-18T09:31:00.402Z,99141.00
2022-09-18T09:34:33.449Z,99163.78
2022-09-18T09:37:46.014Z,99156.56
2022-09-18T09:40:54.320Z,99153.28
2022-09-18T09:44:05.517Z,99159.19
2022-09-18T09:47:38.372Z,99174.59
2022-09-18T09:50:53.562Z,99167.59
2022-09-18T09:54:00.965Z,99181.12
2022-09-18T09:57:36.238Z,99176.28
2022-09-18T10:00:58.313Z,99185.06
2022-09-18T10:04:33.787Z,99186.66
2022-09-18T10:07:47.516Z,99171.53
2022-09-18T10:10:59.045Z,99188.34
2022-09-18T10:14:33.213Z,99175.69
2022-09-18T10:17:41.377Z,99171.19
2022-09-18T10:20:47.076Z,99170.47
2022-09-18T10:24:06.081Z,99167.38
2022-09-18T10:27:13.571Z,99177.13
2022-09-18T10:30:17.884Z,99173.13
2022-09-18T10:33:33.010Z,99168.72
2022-09-18T10:36:38.142Z,99176.06
2022-09-18T10:39:52.979Z,99177.81
2022-09-18T10:42:56.992Z,99192.09
2022-09-18T10:46:00.590Z,99190.63
2022-09-18T10:49:20.564Z,99170.97
2022-09-18T10:52:57.411Z,99187.41
2022-09-18T10:56:16.315Z,99187.19
2022-09-18T10:59:25.429Z,99186.84
2022-09-18T11:02:37.972Z,99185.44
2022-09-18T11:05:59.924Z,99182.19
2022-09-18T11:09:09.639Z,99183.69
2022-09-18T11:12:20.729Z,99183.00
2022-09-18T11:15:27.827Z,99180.75
2022-09-18T11:18:32.237Z,99192.59
2022-09-18T11:21:52.486Z,99180.53
2022-09-18T11:25:28.935Z,99184.13
2022-09-18T11:28:33.200Z,99191.13
2022-09-18T11:31:57.126Z,99195.94
2022-09-18T11:35:05.693Z,99184.34
2022-09-18T11:38:14.453Z,99189.84
2022-09-18T11:41:27.138Z,99180.81
2022-09-18T11:44:34.498Z,99181.12
2022-09-18T11:47:48.433Z,99186.84
2022-09-18T11:50:56.489Z,99185.31
2022-09-18T11:54:07.127Z,99191.06
2022-09-18T11:57:37.721Z,99201.16
2022-09-18T12:00:51.072Z,99195.56
2022-09-18T12:04:23.322Z,99183.19
2022-09-18T12:07:52.271Z,99182.50
2022-09-18T12:11:16.435Z,99180.13
2022-09-18T12:14:36.941Z,99183.41
2022-09-18T12:17:54.556Z,99182.50
2022-09-18T12:21:04.881Z,99178.22
2022-09-18T12:24:13.368Z,99161.84
2022-09-18T12:27:30.017Z,99187.78
2022-09-18T12:30:59.171Z,99184.81
2022-09-18T12:34:10.950Z,99168.19
2022-09-18T12:37:16.858Z,99192.28
2022-09-18T12:40:30.993Z,99207.78
2022-09-18T12:43:52.622Z,99191.25
2022-09-18T12:47:06.684Z,99209.13
2022-09-18T12:50:33.159Z,99226.88
2022-09-18T12:53:47.975Z,99224.25
2022-09-18T12:56:50.857Z,99234.41
2022-09-18T12:59:56.199Z,99236.59
2022-09-18T13:03:13.968Z,99232.69
2022-09-18T13:06:31.720Z,99239.91
2022-09-18T13:09:43.920Z,99236.00
2022-09-18T13:13:00.771Z,99233.41
2022-09-18T13:16:05.059Z,99208.72
2022-09-18T13:19:38.140Z,99218.56
2022-09-18T13:22:44.684Z,99243.31
2022-09-18T13:25:51.629Z,99246.66
2022-09-18T13:28:55.109Z,99257.62
2022-09-18T13:31:57.951Z,99254.44
2022-09-18T13:35:06.174Z,99251.50
2022-09-18T13:38:08.812Z,99234.94
2022-09-18T13:41:12.248Z,99229.31
2022-09-18T13:44:27.478Z,99224.78
2022-09-18T13:47:31.440Z,99220.19
2022-09-18T13:50:36.556Z,99218.53
2022-09-18T13:53:41.934Z,99198.47
2022-09-18T13:57:03.061Z,99217.13
2022-09-18T14:00:21.505Z,99204.41
2022-09-18T14:03:27.691Z,99205.22
2022-09-18T14:06:36.868Z,99215.97
2022-09-18T14:09:52.963Z,99215.13
2022-09-18T14:13:51.468Z,99218.84
2022-09-18T14:16:57.970Z,99227.62
2022-09-18T14:20:19.400Z,99231.09
2022-09-18T14:23:35.575Z,99223.16
2022-09-18T14:26:39.107Z,99227.84
2022-09-18T14:29:42.606Z,99232.81
2022-09-18T14:33:16.086Z,99231.50
2022-09-18T14:36:19.129Z,99225.25
2022-09-18T14:39:26.519Z,99215.72
2022-09-18T14:42:36.648Z,99211.59
2022-09-18T14:45:40.629Z,99207.53
2022-09-18T14:48:43.802Z,99202.03
2022-09-18T14:52:03.078Z,99199.53
2022-09-18T14:55:14.263Z,99205.75
2022-09-18T14:58:22.097Z,99191.06
2022-09-18T15:01:29.528Z,99191.97
2022-09-18T15:04:32.617Z,99194.56
2022-09-18T15:07:39.900Z,99196.06
2022-09-18T15:10:48.814Z,99189.78
2022-09-18T15:13:53.814Z,99191.41
2022-09-18T15:17:01.436Z,99192.09
2022-09-18T15:20:15.424Z,99186.59
2022-09-18T15:23:38.398Z,99193.13
2022-09-18T15:27:03.663Z,99187.13
2022-09-18T15:30:14.341Z,99175.81
2022-09-18T15:33:19.881Z,99182.75
2022-09-18T15:36:29.043Z,99186.69
2022-09-18T15:39:35.334Z,99170.25
2022-09-18T15:42:51.594Z,99187.03
2022-09-18T15:46:04.816Z,99185.72
2022-09-18T15:49:34.485Z,99186.53
2022-09-18T15:52:54.965Z,99194.47
2022-09-18T15:56:05.325Z,99200.56
2022-09-18T15:59:26.106Z,99208.28
2022-09-18T16:02:37.619Z,99194.19
2022-09-18T16:05:53.119Z,99200.81
2022-09-18T16:08:57.124Z,99207.78
2022-09-18T16:12:01.117Z,99213.03
2022-09-18T16:15:18.042Z,99225.78
2022-09-18T16:18:29.203Z,99230.56
2022-09-18T16:21:42.787Z,99225.66
2022-09-18T16:24:45.715Z,99229.88
2022-09-18T16:27:52.243Z,99240.44
2022-09-18T16:30:55.665Z,99229.59
2022-09-18T16:34:19.267Z,99230.75
2022-09-18T16:37:22.933Z,99221.28
2022-09-18T16:40:27.589Z,99222.28
2022-09-18T16:43:30.758Z,99221.88
2022-09-18T16:46:40.595Z,99218.38
2022-09-18T16:49:45.755Z,99213.56
2022-09-18T16:52:48.396Z,99220.75
2022-09-18T16:55:55.666Z,99220.84
2022-09-18T16:59:00.480Z,99225.06
2022-09-18T17:02:04.782Z,99221.56
2022-09-18T17:05:08.072Z,99235.00
2022-09-18T17:08:11.434Z,99232.84
2022-09-18T17:11:14.056Z,99231.22
2022-09-18T17:14:17.111Z,99240.25
2022-09-18T17:17:19.841Z,99232.34
2022-09-18T17:20:23.138Z,99238.87
2022-09-18T17:23:25.760Z,99242.97
2022-09-18T17:26:30.706Z,99239.41
2022-09-18T17:29:33.814Z,99246.25
2022-09-18T17:32:36.774Z,99249.50
2022-09-18T17:35:39.605Z,99251.16
2022-09-18T17:38:43.803Z,99259.09
2022-09-18T17:41:46.613Z,99265.12
2022-09-18T17:44:50.254Z,99258.00
2022-09-18T17:47:53.318Z,99268.94
2022-09-18T17:50:59.414Z,99267.59
2022-09-18T17:54:04.292Z,99265.16
2022-09-18T17:57:11.683Z,99268.97
2022-09-18T18:00:16.488Z,99266.78
2022-09-18T18:03:19.547Z,99281.84
2022-09-18T18:06:22.296Z,99269.78
2022-09-18T18:09:25.377Z,99284.87
2022-09-18T18:12:28.397Z,99281.00
2022-09-18T18:15:31.332Z,99285.13
2022-09-18T18:18:33.966Z,99287.56
2022-09-18T18:21:36.890Z,99295.19
2022-09-18T18:24:39.520Z,99290.28
2022-09-18T18:27:42.614Z,99293.59
2022-09-18T18:31:00.605Z,99303.19
2022-09-18T18:34:04.559Z,99297.44
2022-09-18T18:37:07.197Z,99294.66
2022-09-18T18:40:10.975Z,99306.44
2022-09-18T18:43:17.327Z,99305.63
2022-09-18T18:46:20.638Z,99311.62
2022-09-18T18:49:24.658Z,99313.84
2022-09-18T18:52:28.451Z,99313.31
2022-09-18T18:55:31.147Z,99310.00
2022-09-18T18:58:34.733Z,99317.38
2022-09-18T19:01:38.034Z,99314.09
2022-09-18T19:04:43.188Z,99307.81
2022-09-18T19:07:45.790Z,99302.91
2022-09-18T19:11:01.174Z,99309.44
2022-09-18T19:14:03.847Z,99310.56
2022-09-18T19:17:07.015Z,99300.72
2022-09-18T19:20:09.828Z,99310.56
2022-09-18T19:23:14.510Z,99312.75
2022-09-18T19:26:17.217Z,99320.41
2022-09-18T19:29:21.965Z,99318.78
2022-09-18T19:32:24.757Z,99324.78
2022-09-18T19:35:28.516Z,99318.22
2022-09-18T19:38:32.819Z,99313.25
2022-09-18T19:41:41.865Z,99329.44
2022-09-18T19:44:52.261Z,99322.31
2022-09-18T19:47:56.091Z,99319.31
2022-09-18T19:50:59.249Z,99308.91
2022-09-18T19:54:04.086Z,99305.91
2022-09-18T19:57:06.899Z,99318.50
2022-09-18T20:00:10.596Z,99311.66
2022-09-18T20:03:15.605Z,99294.13
2022-09-18T20:06:19.975Z,99296.88
2022-09-18T20:09:22.827Z,99280.19
2022-09-18T20:12:25.796Z,99297.41
2022-09-18T20:15:28.722Z,99291.13
2022-09-18T20:18:32.379Z,99304.25
2022-09-18T20:21:35.507Z,99291.38
2022-09-18T20:24:39.175Z,99303.19
2022-09-18T20:27:42.500Z,99285.66
2022-09-18T20:30:46.387Z,99281.56
2022-09-18T20:33:53.631Z,99270.88
2022-09-18T20:36:56.799Z,99268.41
2022-09-18T20:40:02.245Z,99266.78
2022-09-18T20:43:06.826Z,99271.16
2022-09-18T20:46:15.960Z,99255.84
2022-09-18T20:49:18.977Z,99241.66
2022-09-18T20:52:21.709Z,99238.59
2022-09-18T20:55:25.261Z,99231.22
2022-09-18T20:58:28.006Z,99235.03
2022-09-18T21:01:35.618Z,99237.44
2022-09-18T21:04:39.258Z,99241.53
2022-09-18T21:07:44.496Z,99242.06
2022-09-18T21:10:55.973Z,99237.69
2022-09-18T21:14:01.053Z,99234.09
2022-09-18T21:17:07.440Z,99235.16
2022-09-18T21:20:12.281Z,99237.06
2022-09-18T21:23:34.845Z,99232.41
2022-09-18T21:26:48.980Z,99224.97
2022-09-18T21:29:52.189Z,99226.31
2022-09-18T21:32:55.881Z,99232.03
2022-09-18T21:35:59.003Z,99239.94
2022-09-18T21:39:01.956Z,99248.69
2022-09-18T21:42:07.422Z,99246.53
2022-09-18T21:45:16.339Z,99249.50
2022-09-18T21:48:19.035Z,99252.81
2022-09-18T21:51:22.289Z,99246.78
2022-09-18T21:54:26.271Z,99249.28
2022-09-18T21:57:29.305Z,99255.53
2022-09-18T22:00:40.074Z,99248.69
2022-09-18T22:03:50.713Z,99245.16
2022-09-18T22:06:55.628Z,99238.06
2022-09-18T22:09:59.457Z,99236.69
2022-09-18T22:13:02.149Z,99238.87
2022-09-18T22:16:05.511Z,99243.22
2022-09-18T22:19:09.138Z,99239.09
2022-09-18T22:22:31.986Z,99232.75
2022-09-18T22:25:34.843Z,99234.91
2022-09-18T22:28:38.189Z,99224.78
2022-09-18T22:31:40.936Z,99224.16
2022-09-18T22:34:44.172Z,99212.69
2022-09-18T22:37:47.085Z,99202.81
2022-09-18T22:40:50.490Z,99198.47
2022-09-18T22:43:55.522Z,99192.78
2022-09-18T22:46:58.625Z,99185.50
2022-09-18T22:50:03.147Z,99186.97
2022-09-18T22:53:06.680Z,99181.28
2022-09-18T22:56:12.609Z,99183.56
2022-09-18T22:59:17.464Z,99175.38
2022-09-18T23:02:21.214Z,99176.50
2022-09-18T23:05:24.348Z,99172.41
2022-09-18T23:08:31.288Z,99171.06
2022-09-18T23:11:35.076Z,99161.72
2022-09-18T23:14:37.893Z,99175.38
2022-09-18T23:17:42.321Z,99181.38
2022-09-18T23:20:52.287Z,99187.31
2022-09-18T23:23:56.454Z,99197.50
2022-09-18T23:26:59.494Z,99187.13
2022-09-18T23:30:06.318Z,99197.03
2022-09-18T23:33:09.545Z,99192.94
2022-09-18T23:36:18.793Z,99176.56
2022-09-18T23:39:27.030Z,99145.19
2022-09-18T23:42:30.123Z,99162.09
2022-09-18T23:45:34.789Z,99177.66
2022-09-18T23:48:38.018Z,99174.34
2022-09-18T23:51:46.412Z,99184.72
2022-09-18T23:54:49.354Z,99187.72
2022-09-18T23:57:52.099Z,99185.53
